sensor_id;sensor_type;location;lat;lon;timestamp;temperature;humidity
51007;DHT22;37034;47.886;-3.904;2022-11-20T00:01:48;14.10;95.40
51007;DHT22;37034;47.886;-3.904;2022-11-20T00:04:13;14.00;95.30
51007;DHT22;37034;47.886;-3.904;2022-11-20T00:06:39;14.10;95.40
51007;DHT22;37034;47.886;-3.904;2022-11-20T00:09:05;14.00;95.60
51007;DHT22;37034;47.886;-3.904;2022-11-20T00:11:31;14.00;95.80
51007;DHT22;37034;47.886;-3.904;2022-11-20T00:13:59;14.00;95.80
51007;DHT22;37034;47.886;-3.904;2022-11-20T00:16:28;14.00;95.90
51007;DHT22;37034;47.886;-3.904;2022-11-20T00:18:54;14.00;95.90
51007;DHT22;37034;47.886;-3.904;2022-11-20T00:21:22;14.10;95.90
51007;DHT22;37034;47.886;-3.904;2022-11-20T00:23:50;14.10;96.00
51007;DHT22;37034;47.886;-3.904;2022-11-20T00:26:18;14.20;95.90
51007;DHT22;37034;47.886;-3.904;2022-11-20T00:28:48;14.20;95.90
51007;DHT22;37034;47.886;-3.904;2022-11-20T00:31:15;14.20;95.80
51007;DHT22;37034;47.886;-3.904;2022-11-20T00:33:42;14.20;95.90
51007;DHT22;37034;47.886;-3.904;2022-11-20T00:36:17;14.20;95.90
51007;DHT22;37034;47.886;-3.904;2022-11-20T00:38:43;14.20;96.10
51007;DHT22;37034;47.886;-3.904;2022-11-20T00:41:11;14.20;96.00
51007;DHT22;37034;47.886;-3.904;2022-11-20T00:43:38;14.20;96.20
51007;DHT22;37034;47.886;-3.904;2022-11-20T00:46:12;14.20;96.30
51007;DHT22;37034;47.886;-3.904;2022-11-20T00:48:38;14.30;96.40
51007;DHT22;37034;47.886;-3.904;2022-11-20T00:51:04;14.30;96.50
51007;DHT22;37034;47.886;-3.904;2022-11-20T00:53:30;14.30;96.60
51007;DHT22;37034;47.886;-3.904;2022-11-20T00:56:04;14.30;96.70
51007;DHT22;37034;47.886;-3.904;2022-11-20T00:58:34;14.30;96.70
51007;DHT22;37034;47.886;-3.904;2022-11-20T01:01:12;14.30;96.80
51007;DHT22;37034;47.886;-3.904;2022-11-20T01:03:40;14.30;96.90
51007;DHT22;37034;47.886;-3.904;2022-11-20T01:06:09;14.30;96.90
51007;DHT22;37034;47.886;-3.904;2022-11-20T01:08:36;14.30;97.10
51007;DHT22;37034;47.886;-3.904;2022-11-20T01:11:07;14.40;97.00
51007;DHT22;37034;47.886;-3.904;2022-11-20T01:13:35;14.40;97.00
51007;DHT22;37034;47.886;-3.904;2022-11-20T01:16:09;14.40;97.20
51007;DHT22;37034;47.886;-3.904;2022-11-20T01:18:37;14.40;97.40
51007;DHT22;37034;47.886;-3.904;2022-11-20T01:21:05;14.40;97.40
51007;DHT22;37034;47.886;-3.904;2022-11-20T01:23:37;14.40;97.40
51007;DHT22;37034;47.886;-3.904;2022-11-20T01:26:05;14.50;97.60
51007;DHT22;37034;47.886;-3.904;2022-11-20T01:28:31;14.50;97.60
51007;DHT22;37034;47.886;-3.904;2022-11-20T01:30:57;14.60;97.60
51007;DHT22;37034;47.886;-3.904;2022-11-20T01:33:23;14.60;97.80
51007;DHT22;37034;47.886;-3.904;2022-11-20T01:35:49;14.70;97.80
51007;DHT22;37034;47.886;-3.904;2022-11-20T01:38:16;14.60;98.00
51007;DHT22;37034;47.886;-3.904;2022-11-20T01:40:42;14.60;98.10
51007;DHT22;37034;47.886;-3.904;2022-11-20T01:43:17;14.60;98.10
51007;DHT22;37034;47.886;-3.904;2022-11-20T01:45:58;14.60;98.30
51007;DHT22;37034;47.886;-3.904;2022-11-20T01:48:28;14.60;98.20
51007;DHT22;37034;47.886;-3.904;2022-11-20T01:50:55;14.70;98.40
51007;DHT22;37034;47.886;-3.904;2022-11-20T01:53:27;14.70;98.50
51007;DHT22;37034;47.886;-3.904;2022-11-20T01:55:55;14.80;98.30
51007;DHT22;37034;47.886;-3.904;2022-11-20T01:58:27;14.80;98.20
51007;DHT22;37034;47.886;-3.904;2022-11-20T02:00:54;14.80;98.30
51007;DHT22;37034;47.886;-3.904;2022-11-20T02:03:20;14.90;98.50
51007;DHT22;37034;47.886;-3.904;2022-11-20T02:05:58;14.90;98.50
51007;DHT22;37034;47.886;-3.904;2022-11-20T02:08:26;14.90;98.50
51007;DHT22;37034;47.886;-3.904;2022-11-20T02:10:52;14.90;98.60
51007;DHT22;37034;47.886;-3.904;2022-11-20T02:13:18;14.90;98.70
51007;DHT22;37034;47.886;-3.904;2022-11-20T02:16:02;15.00;98.60
51007;DHT22;37034;47.886;-3.904;2022-11-20T02:18:28;15.00;98.80
51007;DHT22;37034;47.886;-3.904;2022-11-20T02:21:02;15.00;98.70
51007;DHT22;37034;47.886;-3.904;2022-11-20T02:23:32;15.00;98.70
51007;DHT22;37034;47.886;-3.904;2022-11-20T02:26:02;15.10;98.80
51007;DHT22;37034;47.886;-3.904;2022-11-20T02:28:30;15.20;98.80
51007;DHT22;37034;47.886;-3.904;2022-11-20T02:30:55;15.20;98.70
51007;DHT22;37034;47.886;-3.904;2022-11-20T02:33:21;15.30;98.60
51007;DHT22;37034;47.886;-3.904;2022-11-20T02:35:47;15.30;98.70
51007;DHT22;37034;47.886;-3.904;2022-11-20T02:38:13;15.30;98.50
51007;DHT22;37034;47.886;-3.904;2022-11-20T02:40:39;15.40;98.50
51007;DHT22;37034;47.886;-3.904;2022-11-20T02:43:05;15.40;98.60
51007;DHT22;37034;47.886;-3.904;2022-11-20T02:45:31;15.50;98.30
51007;DHT22;37034;47.886;-3.904;2022-11-20T02:47:57;15.50;98.20
51007;DHT22;37034;47.886;-3.904;2022-11-20T02:50:23;15.50;98.10
51007;DHT22;37034;47.886;-3.904;2022-11-20T02:52:48;15.50;97.90
51007;DHT22;37034;47.886;-3.904;2022-11-20T02:55:14;15.60;97.80
51007;DHT22;37034;47.886;-3.904;2022-11-20T02:57:40;15.60;97.70
51007;DHT22;37034;47.886;-3.904;2022-11-20T03:00:06;15.50;97.50
51007;DHT22;37034;47.886;-3.904;2022-11-20T03:02:32;15.50;97.50
51007;DHT22;37034;47.886;-3.904;2022-11-20T03:04:58;15.40;97.40
51007;DHT22;37034;47.886;-3.904;2022-11-20T03:07:24;15.30;97.60
51007;DHT22;37034;47.886;-3.904;2022-11-20T03:09:49;15.20;97.60
51007;DHT22;37034;47.886;-3.904;2022-11-20T03:12:15;15.20;97.70
51007;DHT22;37034;47.886;-3.904;2022-11-20T03:14:41;15.20;97.70
51007;DHT22;37034;47.886;-3.904;2022-11-20T03:17:06;14.90;97.90
51007;DHT22;37034;47.886;-3.904;2022-11-20T03:19:33;14.80;98.10
51007;DHT22;37034;47.886;-3.904;2022-11-20T03:21:59;14.80;97.80
51007;DHT22;37034;47.886;-3.904;2022-11-20T03:24:26;14.80;97.70
51007;DHT22;37034;47.886;-3.904;2022-11-20T03:26:51;14.80;97.60
51007;DHT22;37034;47.886;-3.904;2022-11-20T03:29:17;14.70;97.50
51007;DHT22;37034;47.886;-3.904;2022-11-20T03:31:43;14.80;97.30
51007;DHT22;37034;47.886;-3.904;2022-11-20T03:34:10;14.70;97.40
51007;DHT22;37034;47.886;-3.904;2022-11-20T03:36:40;14.60;97.50
51007;DHT22;37034;47.886;-3.904;2022-11-20T03:39:06;14.60;97.50
51007;DHT22;37034;47.886;-3.904;2022-11-20T03:41:37;14.60;97.40
51007;DHT22;37034;47.886;-3.904;2022-11-20T03:44:06;14.60;97.30
51007;DHT22;37034;47.886;-3.904;2022-11-20T03:46:32;14.60;97.30
51007;DHT22;37034;47.886;-3.904;2022-11-20T03:48:58;14.50;97.10
51007;DHT22;37034;47.886;-3.904;2022-11-20T03:51:24;14.40;97.20
51007;DHT22;37034;47.886;-3.904;2022-11-20T03:53:53;14.40;97.20
51007;DHT22;37034;47.886;-3.904;2022-11-20T03:56:23;14.30;97.40
51007;DHT22;37034;47.886;-3.904;2022-11-20T03:58:49;14.30;97.30
51007;DHT22;37034;47.886;-3.904;2022-11-20T04:01:20;14.30;97.20
51007;DHT22;37034;47.886;-3.904;2022-11-20T04:03:46;14.30;97.10
51007;DHT22;37034;47.886;-3.904;2022-11-20T04:06:18;14.10;97.30
51007;DHT22;37034;47.886;-3.904;2022-11-20T04:08:44;14.10;97.30
51007;DHT22;37034;47.886;-3.904;2022-11-20T04:11:19;14.20;97.20
51007;DHT22;37034;47.886;-3.904;2022-11-20T04:13:56;14.20;97.20
51007;DHT22;37034;47.886;-3.904;2022-11-20T04:16:24;14.20;97.10
51007;DHT22;37034;47.886;-3.904;2022-11-20T04:18:55;14.10;96.90
51007;DHT22;37034;47.886;-3.904;2022-11-20T04:21:22;14.10;96.90
51007;DHT22;37034;47.886;-3.904;2022-11-20T04:23:48;14.10;96.90
51007;DHT22;37034;47.886;-3.904;2022-11-20T04:26:14;14.10;96.90
51007;DHT22;37034;47.886;-3.904;2022-11-20T04:28:40;14.00;97.00
51007;DHT22;37034;47.886;-3.904;2022-11-20T04:33:32;14.00;97.00
51007;DHT22;37034;47.886;-3.904;2022-11-20T04:36:07;14.00;97.00
51007;DHT22;37034;47.886;-3.904;2022-11-20T04:38:33;14.00;97.00
51007;DHT22;37034;47.886;-3.904;2022-11-20T04:41:04;14.00;97.00
51007;DHT22;37034;47.886;-3.904;2022-11-20T04:43:30;14.00;97.10
51007;DHT22;37034;47.886;-3.904;2022-11-20T04:45:57;14.00;97.00
51007;DHT22;37034;47.886;-3.904;2022-11-20T04:48:24;13.90;97.00
51007;DHT22;37034;47.886;-3.904;2022-11-20T04:50:50;13.90;97.00
51007;DHT22;37034;47.886;-3.904;2022-11-20T04:53:17;13.90;97.00
51007;DHT22;37034;47.886;-3.904;2022-11-20T04:55:43;13.90;97.00
51007;DHT22;37034;47.886;-3.904;2022-11-20T04:58:09;13.90;97.10
51007;DHT22;37034;47.886;-3.904;2022-11-20T05:00:35;13.90;97.20
51007;DHT22;37034;47.886;-3.904;2022-11-20T05:03:00;13.90;97.20
51007;DHT22;37034;47.886;-3.904;2022-11-20T05:05:26;13.90;97.10
51007;DHT22;37034;47.886;-3.904;2022-11-20T05:07:51;13.90;97.10
51007;DHT22;37034;47.886;-3.904;2022-11-20T05:10:17;13.90;97.00
51007;DHT22;37034;47.886;-3.904;2022-11-20T05:12:43;13.90;97.10
51007;DHT22;37034;47.886;-3.904;2022-11-20T05:15:09;13.90;96.90
51007;DHT22;37034;47.886;-3.904;2022-11-20T05:17:34;13.90;96.90
51007;DHT22;37034;47.886;-3.904;2022-11-20T05:20:00;13.90;96.80
51007;DHT22;37034;47.886;-3.904;2022-11-20T05:22:26;13.90;96.80
51007;DHT22;37034;47.886;-3.904;2022-11-20T05:24:51;13.90;96.80
51007;DHT22;37034;47.886;-3.904;2022-11-20T05:27:18;13.90;96.80
51007;DHT22;37034;47.886;-3.904;2022-11-20T05:29:44;13.90;96.80
51007;DHT22;37034;47.886;-3.904;2022-11-20T05:32:09;13.90;96.80
51007;DHT22;37034;47.886;-3.904;2022-11-20T05:34:35;13.90;96.90
51007;DHT22;37034;47.886;-3.904;2022-11-20T05:37:02;13.80;96.90
51007;DHT22;37034;47.886;-3.904;2022-11-20T05:39:28;13.70;97.00
51007;DHT22;37034;47.886;-3.904;2022-11-20T05:41:54;13.70;97.00
51007;DHT22;37034;47.886;-3.904;2022-11-20T05:44:38;13.70;97.00
51007;DHT22;37034;47.886;-3.904;2022-11-20T05:47:04;13.80;96.80
51007;DHT22;37034;47.886;-3.904;2022-11-20T05:49:30;13.80;96.80
51007;DHT22;37034;47.886;-3.904;2022-11-20T05:51:55;13.80;96.70
51007;DHT22;37034;47.886;-3.904;2022-11-20T05:54:21;13.80;96.60
51007;DHT22;37034;47.886;-3.904;2022-11-20T05:56:46;13.80;96.60
51007;DHT22;37034;47.886;-3.904;2022-11-20T05:59:12;13.80;96.50
51007;DHT22;37034;47.886;-3.904;2022-11-20T06:01:38;13.70;96.50
51007;DHT22;37034;47.886;-3.904;2022-11-20T06:04:04;13.70;96.30
51007;DHT22;37034;47.886;-3.904;2022-11-20T06:06:29;13.60;96.60
51007;DHT22;37034;47.886;-3.904;2022-11-20T06:08:55;13.70;96.70
51007;DHT22;37034;47.886;-3.904;2022-11-20T06:11:21;13.70;96.60
51007;DHT22;37034;47.886;-3.904;2022-11-20T06:13:47;13.70;96.50
51007;DHT22;37034;47.886;-3.904;2022-11-20T06:16:15;13.70;96.60
51007;DHT22;37034;47.886;-3.904;2022-11-20T06:18:41;13.70;96.70
51007;DHT22;37034;47.886;-3.904;2022-11-20T06:21:08;13.70;96.70
51007;DHT22;37034;47.886;-3.904;2022-11-20T06:23:35;13.70;96.60
51007;DHT22;37034;47.886;-3.904;2022-11-20T06:26:03;13.70;96.50
51007;DHT22;37034;47.886;-3.904;2022-11-20T06:28:29;13.70;96.40
51007;DHT22;37034;47.886;-3.904;2022-11-20T06:30:54;13.60;96.30
51007;DHT22;37034;47.886;-3.904;2022-11-20T06:33:20;13.60;96.30
51007;DHT22;37034;47.886;-3.904;2022-11-20T06:35:45;13.60;96.20
51007;DHT22;37034;47.886;-3.904;2022-11-20T06:38:11;13.60;96.10
51007;DHT22;37034;47.886;-3.904;2022-11-20T06:40:40;13.60;96.20
51007;DHT22;37034;47.886;-3.904;2022-11-20T06:43:06;13.50;96.10
51007;DHT22;37034;47.886;-3.904;2022-11-20T06:45:31;13.50;96.10
51007;DHT22;37034;47.886;-3.904;2022-11-20T06:47:57;13.50;96.00
51007;DHT22;37034;47.886;-3.904;2022-11-20T06:50:24;13.40;95.90
51007;DHT22;37034;47.886;-3.904;2022-11-20T06:52:49;13.30;95.90
51007;DHT22;37034;47.886;-3.904;2022-11-20T06:55:15;13.30;96.00
51007;DHT22;37034;47.886;-3.904;2022-11-20T06:57:40;13.30;96.20
51007;DHT22;37034;47.886;-3.904;2022-11-20T07:00:06;13.30;96.00
51007;DHT22;37034;47.886;-3.904;2022-11-20T07:02:32;13.30;95.90
51007;DHT22;37034;47.886;-3.904;2022-11-20T07:04:58;13.20;95.80
51007;DHT22;37034;47.886;-3.904;2022-11-20T07:07:24;13.20;95.80
51007;DHT22;37034;47.886;-3.904;2022-11-20T07:09:49;13.10;95.80
51007;DHT22;37034;47.886;-3.904;2022-11-20T07:12:16;13.10;95.80
51007;DHT22;37034;47.886;-3.904;2022-11-20T07:14:41;13.00;95.80
51007;DHT22;37034;47.886;-3.904;2022-11-20T07:17:07;13.00;95.80
51007;DHT22;37034;47.886;-3.904;2022-11-20T07:19:33;13.00;95.70
51007;DHT22;37034;47.886;-3.904;2022-11-20T07:21:59;13.00;95.60
51007;DHT22;37034;47.886;-3.904;2022-11-20T07:24:24;12.90;96.00
51007;DHT22;37034;47.886;-3.904;2022-11-20T07:26:50;12.90;95.70
51007;DHT22;37034;47.886;-3.904;2022-11-20T07:29:16;12.90;95.80
51007;DHT22;37034;47.886;-3.904;2022-11-20T07:31:42;12.90;95.70
51007;DHT22;37034;47.886;-3.904;2022-11-20T07:34:08;12.80;95.60
51007;DHT22;37034;47.886;-3.904;2022-11-20T07:36:34;12.80;95.60
51007;DHT22;37034;47.886;-3.904;2022-11-20T07:39:00;12.80;95.70
51007;DHT22;37034;47.886;-3.904;2022-11-20T07:41:25;12.80;95.80
51007;DHT22;37034;47.886;-3.904;2022-11-20T07:43:51;12.80;95.80
51007;DHT22;37034;47.886;-3.904;2022-11-20T07:46:17;12.70;95.80
51007;DHT22;37034;47.886;-3.904;2022-11-20T07:48:42;12.80;95.80
51007;DHT22;37034;47.886;-3.904;2022-11-20T07:51:08;12.70;95.90
51007;DHT22;37034;47.886;-3.904;2022-11-20T07:53:34;12.70;95.60
51007;DHT22;37034;47.886;-3.904;2022-11-20T07:56:01;12.70;95.60
51007;DHT22;37034;47.886;-3.904;2022-11-20T07:58:29;12.70;95.70
51007;DHT22;37034;47.886;-3.904;2022-11-20T08:00:55;12.70;95.60
51007;DHT22;37034;47.886;-3.904;2022-11-20T08:03:20;12.70;95.50
51007;DHT22;37034;47.886;-3.904;2022-11-20T08:05:46;12.70;95.50
51007;DHT22;37034;47.886;-3.904;2022-11-20T08:08:12;12.70;95.60
51007;DHT22;37034;47.886;-3.904;2022-11-20T08:10:38;12.70;95.70
51007;DHT22;37034;47.886;-3.904;2022-11-20T08:13:03;12.70;95.70
51007;DHT22;37034;47.886;-3.904;2022-11-20T08:15:49;12.70;95.80
51007;DHT22;37034;47.886;-3.904;2022-11-20T08:18:16;12.70;95.80
51007;DHT22;37034;47.886;-3.904;2022-11-20T08:20:43;12.80;95.90
51007;DHT22;37034;47.886;-3.904;2022-11-20T08:23:08;12.80;95.90
51007;DHT22;37034;47.886;-3.904;2022-11-20T08:25:36;12.80;95.90
51007;DHT22;37034;47.886;-3.904;2022-11-20T08:28:05;12.90;95.90
51007;DHT22;37034;47.886;-3.904;2022-11-20T08:30:31;12.90;95.90
51007;DHT22;37034;47.886;-3.904;2022-11-20T08:33:05;12.90;96.00
51007;DHT22;37034;47.886;-3.904;2022-11-20T08:35:35;13.00;96.00
51007;DHT22;37034;47.886;-3.904;2022-11-20T08:38:02;13.00;96.00
51007;DHT22;37034;47.886;-3.904;2022-11-20T08:40:28;13.00;95.90
51007;DHT22;37034;47.886;-3.904;2022-11-20T08:42:54;13.10;95.80
51007;DHT22;37034;47.886;-3.904;2022-11-20T08:45:20;13.10;95.90
51007;DHT22;37034;47.886;-3.904;2022-11-20T08:47:46;13.10;96.00
51007;DHT22;37034;47.886;-3.904;2022-11-20T08:50:14;13.20;96.10
51007;DHT22;37034;47.886;-3.904;2022-11-20T08:52:39;13.30;96.10
51007;DHT22;37034;47.886;-3.904;2022-11-20T08:55:06;13.30;96.10
51007;DHT22;37034;47.886;-3.904;2022-11-20T08:57:33;13.30;96.00
51007;DHT22;37034;47.886;-3.904;2022-11-20T08:59:59;13.30;96.10
51007;DHT22;37034;47.886;-3.904;2022-11-20T09:02:25;13.40;96.10
51007;DHT22;37034;47.886;-3.904;2022-11-20T09:04:50;13.40;96.10
51007;DHT22;37034;47.886;-3.904;2022-11-20T09:07:16;13.40;96.00
51007;DHT22;37034;47.886;-3.904;2022-11-20T09:09:42;13.40;95.90
51007;DHT22;37034;47.886;-3.904;2022-11-20T09:12:07;13.50;96.00
51007;DHT22;37034;47.886;-3.904;2022-11-20T09:14:33;13.60;96.00
51007;DHT22;37034;47.886;-3.904;2022-11-20T09:16:59;13.60;95.90
51007;DHT22;37034;47.886;-3.904;2022-11-20T09:19:25;13.60;95.90
51007;DHT22;37034;47.886;-3.904;2022-11-20T09:21:51;13.60;95.80
51007;DHT22;37034;47.886;-3.904;2022-11-20T09:24:17;13.60;95.90
51007;DHT22;37034;47.886;-3.904;2022-11-20T09:26:44;13.70;95.80
51007;DHT22;37034;47.886;-3.904;2022-11-20T09:29:10;13.70;95.80
51007;DHT22;37034;47.886;-3.904;2022-11-20T09:31:36;13.70;95.70
51007;DHT22;37034;47.886;-3.904;2022-11-20T09:34:02;13.70;95.80
51007;DHT22;37034;47.886;-3.904;2022-11-20T09:36:27;13.80;95.90
51007;DHT22;37034;47.886;-3.904;2022-11-20T09:38:53;13.80;96.00
51007;DHT22;37034;47.886;-3.904;2022-11-20T09:47:10;13.90;95.70
51007;DHT22;37034;47.886;-3.904;2022-11-20T09:52:32;14.00;95.90
51007;DHT22;37034;47.886;-3.904;2022-11-20T09:55:01;14.10;95.80
51007;DHT22;37034;47.886;-3.904;2022-11-20T09:57:39;14.20;95.90
51007;DHT22;37034;47.886;-3.904;2022-11-20T10:00:11;14.20;95.70
51007;DHT22;37034;47.886;-3.904;2022-11-20T10:06:07;14.30;96.00
51007;DHT22;37034;47.886;-3.904;2022-11-20T10:08:55;14.40;95.90
51007;DHT22;37034;47.886;-3.904;2022-11-20T10:11:31;14.40;95.80
51007;DHT22;37034;47.886;-3.904;2022-11-20T10:14:12;14.50;95.70
51007;DHT22;37034;47.886;-3.904;2022-11-20T10:16:48;14.50;95.50
51007;DHT22;37034;47.886;-3.904;2022-11-20T10:25:18;14.50;95.90
51007;DHT22;37034;47.886;-3.904;2022-11-20T10:27:56;14.60;95.70
51007;DHT22;37034;47.886;-3.904;2022-11-20T10:30:27;14.60;95.90
51007;DHT22;37034;47.886;-3.904;2022-11-20T10:33:00;14.70;95.80
51007;DHT22;37034;47.886;-3.904;2022-11-20T10:35:55;14.80;95.80
51007;DHT22;37034;47.886;-3.904;2022-11-20T10:38:34;14.80;95.80
51007;DHT22;37034;47.886;-3.904;2022-11-20T10:41:02;14.90;95.70
51007;DHT22;37034;47.886;-3.904;2022-11-20T10:44:05;15.00;95.70
51007;DHT22;37034;47.886;-3.904;2022-11-20T10:46:39;15.00;95.60
51007;DHT22;37034;47.886;-3.904;2022-11-20T10:49:17;15.10;95.20
51007;DHT22;37034;47.886;-3.904;2022-11-20T10:52:02;15.10;95.50
51007;DHT22;37034;47.886;-3.904;2022-11-20T11:02:42;15.40;95.30
51007;DHT22;37034;47.886;-3.904;2022-11-20T11:07:54;15.50;94.80
51007;DHT22;37034;47.886;-3.904;2022-11-20T11:10:32;15.60;94.80
51007;DHT22;37034;47.886;-3.904;2022-11-20T11:13:01;15.50;94.40
51007;DHT22;37034;47.886;-3.904;2022-11-20T11:15:28;15.60;94.70
51007;DHT22;37034;47.886;-3.904;2022-11-20T11:17:54;15.60;94.80
51007;DHT22;37034;47.886;-3.904;2022-11-20T11:20:22;15.60;94.80
51007;DHT22;37034;47.886;-3.904;2022-11-20T11:22:58;15.70;94.40
51007;DHT22;37034;47.886;-3.904;2022-11-20T11:25:27;15.80;94.30
51007;DHT22;37034;47.886;-3.904;2022-11-20T11:27:55;15.90;94.30
51007;DHT22;37034;47.886;-3.904;2022-11-20T11:30:22;15.90;94.40
51007;DHT22;37034;47.886;-3.904;2022-11-20T11:32:48;16.00;94.10
51007;DHT22;37034;47.886;-3.904;2022-11-20T11:35:24;16.00;94.50
51007;DHT22;37034;47.886;-3.904;2022-11-20T11:37:51;16.00;94.10
51007;DHT22;37034;47.886;-3.904;2022-11-20T11:40:19;16.10;94.20
51007;DHT22;37034;47.886;-3.904;2022-11-20T11:43:49;15.80;93.90
51007;DHT22;37034;47.886;-3.904;2022-11-20T11:46:24;15.90;94.00
51007;DHT22;37034;47.886;-3.904;2022-11-20T11:49:08;16.10;94.10
51007;DHT22;37034;47.886;-3.904;2022-11-20T11:54:47;15.90;93.60
51007;DHT22;37034;47.886;-3.904;2022-11-20T11:57:23;15.80;93.20
51007;DHT22;37034;47.886;-3.904;2022-11-20T12:05:28;15.90;93.10
51007;DHT22;37034;47.886;-3.904;2022-11-20T12:15:54;15.70;93.00
51007;DHT22;37034;47.886;-3.904;2022-11-20T12:18:21;15.60;92.70
51007;DHT22;37034;47.886;-3.904;2022-11-20T12:43:27;15.40;92.20
51007;DHT22;37034;47.886;-3.904;2022-11-20T12:46:46;15.50;91.90
51007;DHT22;37034;47.886;-3.904;2022-11-20T13:03:17;15.50;91.10
51007;DHT22;37034;47.886;-3.904;2022-11-20T13:08:36;15.80;91.20
51007;DHT22;37034;47.886;-3.904;2022-11-20T13:12:08;15.80;91.30
51007;DHT22;37034;47.886;-3.904;2022-11-20T13:14:24;15.80;91.40
51007;DHT22;37034;47.886;-3.904;2022-11-20T13:16:53;15.80;91.00
51007;DHT22;37034;47.886;-3.904;2022-11-20T13:19:21;15.90;91.50
51007;DHT22;37034;47.886;-3.904;2022-11-20T13:21:49;16.00;91.40
51007;DHT22;37034;47.886;-3.904;2022-11-20T13:26:44;16.30;91.00
51007;DHT22;37034;47.886;-3.904;2022-11-20T13:29:17;16.40;91.40
51007;DHT22;37034;47.886;-3.904;2022-11-20T13:31:45;16.40;90.90
51007;DHT22;37034;47.886;-3.904;2022-11-20T13:34:14;16.40;90.50
51007;DHT22;37034;47.886;-3.904;2022-11-20T13:36:52;16.30;90.60
51007;DHT22;37034;47.886;-3.904;2022-11-20T13:39:32;16.30;90.50
51007;DHT22;37034;47.886;-3.904;2022-11-20T13:44:35;16.30;90.50
51007;DHT22;37034;47.886;-3.904;2022-11-20T13:47:03;16.30;90.60
51007;DHT22;37034;47.886;-3.904;2022-11-20T13:49:39;16.30;90.20
51007;DHT22;37034;47.886;-3.904;2022-11-20T13:57:42;16.30;90.40
51007;DHT22;37034;47.886;-3.904;2022-11-20T14:00:19;16.40;90.50
51007;DHT22;37034;47.886;-3.904;2022-11-20T14:05:38;16.10;90.60
51007;DHT22;37034;47.886;-3.904;2022-11-20T14:08:06;16.10;90.70
51007;DHT22;37034;47.886;-3.904;2022-11-20T14:10:36;16.30;90.70
51007;DHT22;37034;47.886;-3.904;2022-11-20T14:13:17;16.20;90.90
51007;DHT22;37034;47.886;-3.904;2022-11-20T14:15:43;16.20;90.70
51007;DHT22;37034;47.886;-3.904;2022-11-20T14:18:14;16.30;90.80
51007;DHT22;37034;47.886;-3.904;2022-11-20T14:20:41;16.30;90.80
51007;DHT22;37034;47.886;-3.904;2022-11-20T14:23:10;16.20;90.70
51007;DHT22;37034;47.886;-3.904;2022-11-20T14:25:36;16.30;90.70
51007;DHT22;37034;47.886;-3.904;2022-11-20T14:28:03;16.40;90.80
51007;DHT22;37034;47.886;-3.904;2022-11-20T14:30:45;16.40;90.50
51007;DHT22;37034;47.886;-3.904;2022-11-20T14:33:12;16.30;90.40
51007;DHT22;37034;47.886;-3.904;2022-11-20T14:35:46;16.30;90.30
51007;DHT22;37034;47.886;-3.904;2022-11-20T14:38:14;16.20;90.00
51007;DHT22;37034;47.886;-3.904;2022-11-20T14:40:40;16.20;90.00
51007;DHT22;37034;47.886;-3.904;2022-11-20T14:43:17;16.20;90.10
51007;DHT22;37034;47.886;-3.904;2022-11-20T14:45:46;16.00;89.60
51007;DHT22;37034;47.886;-3.904;2022-11-20T14:48:15;15.90;90.20
51007;DHT22;37034;47.886;-3.904;2022-11-20T14:50:41;15.90;90.30
51007;DHT22;37034;47.886;-3.904;2022-11-20T14:53:07;16.00;90.20
51007;DHT22;37034;47.886;-3.904;2022-11-20T14:55:39;16.10;90.30
51007;DHT22;37034;47.886;-3.904;2022-11-20T14:58:32;16.00;90.00
51007;DHT22;37034;47.886;-3.904;2022-11-20T15:01:04;15.90;90.20
51007;DHT22;37034;47.886;-3.904;2022-11-20T15:03:38;16.10;90.30
51007;DHT22;37034;47.886;-3.904;2022-11-20T15:06:05;16.10;90.10
51007;DHT22;37034;47.886;-3.904;2022-11-20T15:08:32;16.10;90.10
51007;DHT22;37034;47.886;-3.904;2022-11-20T15:10:58;16.20;90.20
51007;DHT22;37034;47.886;-3.904;2022-11-20T15:13:30;16.10;90.10
51007;DHT22;37034;47.886;-3.904;2022-11-20T15:15:58;16.20;90.10
51007;DHT22;37034;47.886;-3.904;2022-11-20T15:18:38;16.10;90.10
51007;DHT22;37034;47.886;-3.904;2022-11-20T15:21:11;16.10;90.20
51007;DHT22;37034;47.886;-3.904;2022-11-20T15:23:37;16.10;90.10
51007;DHT22;37034;47.886;-3.904;2022-11-20T15:26:10;16.20;90.20
51007;DHT22;37034;47.886;-3.904;2022-11-20T15:28:40;16.20;90.00
51007;DHT22;37034;47.886;-3.904;2022-11-20T15:31:08;16.20;90.00
51007;DHT22;37034;47.886;-3.904;2022-11-20T15:33:36;16.20;90.10
51007;DHT22;37034;47.886;-3.904;2022-11-20T15:36:02;16.20;90.10
51007;DHT22;37034;47.886;-3.904;2022-11-20T15:38:28;16.20;90.00
51007;DHT22;37034;47.886;-3.904;2022-11-20T15:40:54;16.20;90.00
51007;DHT22;37034;47.886;-3.904;2022-11-20T15:43:19;16.30;90.00
51007;DHT22;37034;47.886;-3.904;2022-11-20T15:45:51;16.20;90.00
51007;DHT22;37034;47.886;-3.904;2022-11-20T15:48:20;16.20;89.80
51007;DHT22;37034;47.886;-3.904;2022-11-20T15:51:11;16.10;90.00
51007;DHT22;37034;47.886;-3.904;2022-11-20T15:53:41;16.10;89.90
51007;DHT22;37034;47.886;-3.904;2022-11-20T15:56:14;16.00;89.80
51007;DHT22;37034;47.886;-3.904;2022-11-20T15:58:40;15.90;90.00
51007;DHT22;37034;47.886;-3.904;2022-11-20T16:01:14;15.90;90.00
51007;DHT22;37034;47.886;-3.904;2022-11-20T16:03:41;15.90;90.00
51007;DHT22;37034;47.886;-3.904;2022-11-20T16:06:07;15.90;90.00
51007;DHT22;37034;47.886;-3.904;2022-11-20T16:08:33;15.90;90.00
51007;DHT22;37034;47.886;-3.904;2022-11-20T16:10:58;15.80;90.00
51007;DHT22;37034;47.886;-3.904;2022-11-20T16:13:24;15.80;90.00
51007;DHT22;37034;47.886;-3.904;2022-11-20T16:16:22;15.80;90.00
51007;DHT22;37034;47.886;-3.904;2022-11-20T16:18:49;15.80;90.10
51007;DHT22;37034;47.886;-3.904;2022-11-20T16:21:14;15.80;90.10
51007;DHT22;37034;47.886;-3.904;2022-11-20T16:23:41;15.80;90.20
51007;DHT22;37034;47.886;-3.904;2022-11-20T16:26:15;15.70;90.10
51007;DHT22;37034;47.886;-3.904;2022-11-20T16:28:42;15.70;90.10
51007;DHT22;37034;47.886;-3.904;2022-11-20T16:31:13;15.60;90.10
51007;DHT22;37034;47.886;-3.904;2022-11-20T16:33:39;15.60;90.20
51007;DHT22;37034;47.886;-3.904;2022-11-20T16:36:13;15.50;90.20
51007;DHT22;37034;47.886;-3.904;2022-11-20T16:38:40;15.50;90.40
51007;DHT22;37034;47.886;-3.904;2022-11-20T16:41:06;15.50;90.20
51007;DHT22;37034;47.886;-3.904;2022-11-20T16:43:46;15.40;90.20
51007;DHT22;37034;47.886;-3.904;2022-11-20T16:46:14;15.40;90.40
51007;DHT22;37034;47.886;-3.904;2022-11-20T16:48:39;15.40;90.40
51007;DHT22;37034;47.886;-3.904;2022-11-20T16:51:08;15.40;90.40
51007;DHT22;37034;47.886;-3.904;2022-11-20T16:53:35;15.30;90.40
51007;DHT22;37034;47.886;-3.904;2022-11-20T16:56:08;15.30;90.40
51007;DHT22;37034;47.886;-3.904;2022-11-20T16:58:34;15.30;90.70
51007;DHT22;37034;47.886;-3.904;2022-11-20T17:01:05;15.30;90.50
51007;DHT22;37034;47.886;-3.904;2022-11-20T17:03:31;15.30;90.60
51007;DHT22;37034;47.886;-3.904;2022-11-20T17:05:57;15.20;90.50
51007;DHT22;37034;47.886;-3.904;2022-11-20T17:08:22;15.20;90.60